sensor_id;sensor_type;location;lat;lon;timestamp;P1;durP1;ratioP1;P2;durP2;ratioP2
9821;SDS011;4950;46.042;14.472;2022-10-22T00:01:03;5.00;;;4.20;;
9821;SDS011;4950;46.042;14.472;2022-10-22T00:03:30;5.30;;;4.37;;
9821;SDS011;4950;46.042;14.472;2022-10-22T00:05:56;6.30;;;4.37;;
9821;SDS011;4950;46.042;14.472;2022-10-22T00:08:23;9.37;;;4.10;;
9821;SDS011;4950;46.042;14.472;2022-10-22T00:10:51;5.73;;;4.70;;
9821;SDS011;4950;46.042;14.472;2022-10-22T00:13:18;5.90;;;4.30;;
9821;SDS011;4950;46.042;14.472;2022-10-22T00:15:45;5.37;;;4.20;;
9821;SDS011;4950;46.042;14.472;2022-10-22T00:18:12;5.70;;;4.50;;
9821;SDS011;4950;46.042;14.472;2022-10-22T00:20:38;4.73;;;4.33;;
9821;SDS011;4950;46.042;14.472;2022-10-22T00:23:05;7.27;;;4.43;;
9821;SDS011;4950;46.042;14.472;2022-10-22T00:25:33;6.00;;;4.20;;
9821;SDS011;4950;46.042;14.472;2022-10-22T00:28:01;7.40;;;4.60;;
9821;SDS011;4950;46.042;14.472;2022-10-22T00:30:28;7.07;;;4.40;;
9821;SDS011;4950;46.042;14.472;2022-10-22T00:32:54;7.17;;;4.77;;
9821;SDS011;4950;46.042;14.472;2022-10-22T00:35:21;6.90;;;4.30;;
9821;SDS011;4950;46.042;14.472;2022-10-22T00:37:47;5.50;;;4.30;;
9821;SDS011;4950;46.042;14.472;2022-10-22T00:40:14;6.10;;;4.87;;
9821;SDS011;4950;46.042;14.472;2022-10-22T00:42:41;7.20;;;4.13;;
9821;SDS011;4950;46.042;14.472;2022-10-22T00:45:16;6.73;;;4.33;;
9821;SDS011;4950;46.042;14.472;2022-10-22T00:47:51;5.43;;;4.30;;
9821;SDS011;4950;46.042;14.472;2022-10-22T00:50:23;5.97;;;4.37;;
9821;SDS011;4950;46.042;14.472;2022-10-22T00:52:54;5.60;;;4.53;;
9821;SDS011;4950;46.042;14.472;2022-10-22T00:55:22;5.10;;;4.37;;
9821;SDS011;4950;46.042;14.472;2022-10-22T00:57:50;5.77;;;4.27;;
9821;SDS011;4950;46.042;14.472;2022-10-22T01:00:20;5.73;;;4.43;;
9821;SDS011;4950;46.042;14.472;2022-10-22T01:02:47;5.23;;;4.00;;
9821;SDS011;4950;46.042;14.472;2022-10-22T01:05:16;4.20;;;3.87;;
9821;SDS011;4950;46.042;14.472;2022-10-22T01:07:44;5.27;;;4.23;;
9821;SDS011;4950;46.042;14.472;2022-10-22T01:10:17;8.33;;;4.40;;
9821;SDS011;4950;46.042;14.472;2022-10-22T01:12:54;5.77;;;3.80;;
9821;SDS011;4950;46.042;14.472;2022-10-22T01:15:33;5.37;;;3.90;;
9821;SDS011;4950;46.042;14.472;2022-10-22T01:18:07;5.67;;;4.00;;
9821;SDS011;4950;46.042;14.472;2022-10-22T01:20:39;7.43;;;3.97;;
9821;SDS011;4950;46.042;14.472;2022-10-22T01:23:29;7.80;;;4.10;;
9821;SDS011;4950;46.042;14.472;2022-10-22T01:26:32;6.27;;;4.17;;
9821;SDS011;4950;46.042;14.472;2022-10-22T01:29:10;7.13;;;4.20;;
9821;SDS011;4950;46.042;14.472;2022-10-22T01:31:42;6.60;;;3.93;;
9821;SDS011;4950;46.042;14.472;2022-10-22T01:34:13;6.77;;;3.80;;
9821;SDS011;4950;46.042;14.472;2022-10-22T01:36:42;4.60;;;3.90;;
9821;SDS011;4950;46.042;14.472;2022-10-22T01:39:11;8.10;;;4.83;;
9821;SDS011;4950;46.042;14.472;2022-10-22T01:41:40;6.37;;;3.70;;
9821;SDS011;4950;46.042;14.472;2022-10-22T01:44:22;7.37;;;4.13;;
9821;SDS011;4950;46.042;14.472;2022-10-22T01:46:50;7.70;;;4.40;;
9821;SDS011;4950;46.042;14.472;2022-10-22T01:49:23;5.47;;;3.87;;
9821;SDS011;4950;46.042;14.472;2022-10-22T01:51:56;6.47;;;4.70;;
9821;SDS011;4950;46.042;14.472;2022-10-22T01:54:30;5.70;;;4.37;;
9821;SDS011;4950;46.042;14.472;2022-10-22T01:57:06;7.00;;;4.53;;
9821;SDS011;4950;46.042;14.472;2022-10-22T01:59:43;6.03;;;4.50;;
9821;SDS011;4950;46.042;14.472;2022-10-22T02:02:22;6.60;;;4.37;;
9821;SDS011;4950;46.042;14.472;2022-10-22T02:04:55;4.90;;;4.20;;
9821;SDS011;4950;46.042;14.472;2022-10-22T02:07:27;4.97;;;4.20;;
9821;SDS011;4950;46.042;14.472;2022-10-22T02:09:57;7.37;;;5.27;;
9821;SDS011;4950;46.042;14.472;2022-10-22T02:12:26;5.47;;;4.57;;
9821;SDS011;4950;46.042;14.472;2022-10-22T02:14:55;4.83;;;4.03;;
9821;SDS011;4950;46.042;14.472;2022-10-22T02:17:23;6.10;;;4.33;;
9821;SDS011;4950;46.042;14.472;2022-10-22T02:19:52;5.67;;;4.60;;
9821;SDS011;4950;46.042;14.472;2022-10-22T02:22:22;7.03;;;4.23;;
9821;SDS011;4950;46.042;14.472;2022-10-22T02:24:50;5.37;;;4.77;;
9821;SDS011;4950;46.042;14.472;2022-10-22T02:27:18;6.57;;;4.03;;
9821;SDS011;4950;46.042;14.472;2022-10-22T02:29:49;7.80;;;4.60;;
9821;SDS011;4950;46.042;14.472;2022-10-22T02:32:23;6.53;;;4.50;;
9821;SDS011;4950;46.042;14.472;2022-10-22T02:34:53;5.63;;;4.23;;
9821;SDS011;4950;46.042;14.472;2022-10-22T02:37:21;7.80;;;4.03;;
9821;SDS011;4950;46.042;14.472;2022-10-22T02:39:50;7.27;;;3.80;;
9821;SDS011;4950;46.042;14.472;2022-10-22T02:42:18;5.50;;;4.23;;
9821;SDS011;4950;46.042;14.472;2022-10-22T02:44:45;5.87;;;4.20;;
9821;SDS011;4950;46.042;14.472;2022-10-22T02:47:11;7.07;;;4.10;;
9821;SDS011;4950;46.042;14.472;2022-10-22T02:49:39;7.70;;;4.60;;
9821;SDS011;4950;46.042;14.472;2022-10-22T02:52:06;5.90;;;4.27;;
9821;SDS011;4950;46.042;14.472;2022-10-22T02:54:33;5.33;;;4.10;;
9821;SDS011;4950;46.042;14.472;2022-10-22T02:56:59;8.13;;;4.60;;
9821;SDS011;4950;46.042;14.472;2022-10-22T02:59:26;8.60;;;4.47;;
9821;SDS011;4950;46.042;14.472;2022-10-22T03:01:52;7.30;;;4.17;;
9821;SDS011;4950;46.042;14.472;2022-10-22T03:04:19;5.67;;;4.13;;
9821;SDS011;4950;46.042;14.472;2022-10-22T03:06:47;6.37;;;4.43;;
9821;SDS011;4950;46.042;14.472;2022-10-22T03:09:14;6.13;;;4.13;;
9821;SDS011;4950;46.042;14.472;2022-10-22T03:11:41;8.90;;;4.00;;
9821;SDS011;4950;46.042;14.472;2022-10-22T03:14:08;6.27;;;3.97;;
9821;SDS011;4950;46.042;14.472;2022-10-22T03:16:34;7.67;;;4.10;;
9821;SDS011;4950;46.042;14.472;2022-10-22T03:19:01;5.67;;;3.63;;
9821;SDS011;4950;46.042;14.472;2022-10-22T03:21:29;9.90;;;4.10;;
9821;SDS011;4950;46.042;14.472;2022-10-22T03:24:01;5.83;;;4.10;;
9821;SDS011;4950;46.042;14.472;2022-10-22T03:26:30;6.10;;;4.17;;
9821;SDS011;4950;46.042;14.472;2022-10-22T03:28:57;6.20;;;3.83;;
9821;SDS011;4950;46.042;14.472;2022-10-22T03:31:24;7.03;;;4.53;;
9821;SDS011;4950;46.042;14.472;2022-10-22T03:33:51;5.73;;;4.30;;
9821;SDS011;4950;46.042;14.472;2022-10-22T03:36:18;7.73;;;4.43;;
9821;SDS011;4950;46.042;14.472;2022-10-22T03:38:45;6.37;;;4.30;;
9821;SDS011;4950;46.042;14.472;2022-10-22T03:41:13;6.50;;;4.50;;
9821;SDS011;4950;46.042;14.472;2022-10-22T03:43:39;7.20;;;4.60;;
9821;SDS011;4950;46.042;14.472;2022-10-22T03:46:06;6.70;;;4.77;;
9821;SDS011;4950;46.042;14.472;2022-10-22T03:48:33;6.87;;;4.63;;
9821;SDS011;4950;46.042;14.472;2022-10-22T03:50:59;6.63;;;4.50;;
9821;SDS011;4950;46.042;14.472;2022-10-22T03:53:26;7.07;;;4.87;;
9821;SDS011;4950;46.042;14.472;2022-10-22T03:55:53;8.77;;;4.63;;
9821;SDS011;4950;46.042;14.472;2022-10-22T03:58:21;6.23;;;5.03;;
9821;SDS011;4950;46.042;14.472;2022-10-22T04:00:47;6.77;;;4.60;;
9821;SDS011;4950;46.042;14.472;2022-10-22T04:03:14;7.07;;;5.10;;
9821;SDS011;4950;46.042;14.472;2022-10-22T04:05:40;7.13;;;4.93;;
9821;SDS011;4950;46.042;14.472;2022-10-22T04:08:07;7.63;;;5.10;;
9821;SDS011;4950;46.042;14.472;2022-10-22T04:10:33;5.83;;;4.80;;
9821;SDS011;4950;46.042;14.472;2022-10-22T04:13:00;6.30;;;4.60;;
9821;SDS011;4950;46.042;14.472;2022-10-22T04:15:28;5.93;;;4.63;;
9821;SDS011;4950;46.042;14.472;2022-10-22T04:17:56;5.67;;;5.00;;
9821;SDS011;4950;46.042;14.472;2022-10-22T04:20:23;8.30;;;5.27;;
9821;SDS011;4950;46.042;14.472;2022-10-22T04:22:49;7.17;;;4.73;;
9821;SDS011;4950;46.042;14.472;2022-10-22T04:25:16;8.97;;;4.50;;
9821;SDS011;4950;46.042;14.472;2022-10-22T04:27:43;6.57;;;5.07;;
9821;SDS011;4950;46.042;14.472;2022-10-22T04:30:10;10.60;;;5.13;;
9821;SDS011;4950;46.042;14.472;2022-10-22T04:32:38;8.27;;;4.57;;
9821;SDS011;4950;46.042;14.472;2022-10-22T04:35:05;6.50;;;5.17;;
9821;SDS011;4950;46.042;14.472;2022-10-22T04:37:32;10.02;;;5.07;;
9821;SDS011;4950;46.042;14.472;2022-10-22T04:39:59;8.38;;;5.00;;
9821;SDS011;4950;46.042;14.472;2022-10-22T04:42:26;7.87;;;4.93;;
9821;SDS011;4950;46.042;14.472;2022-10-22T04:44:52;6.80;;;4.70;;
9821;SDS011;4950;46.042;14.472;2022-10-22T04:47:19;6.60;;;4.90;;
9821;SDS011;4950;46.042;14.472;2022-10-22T04:49:47;6.63;;;5.40;;
9821;SDS011;4950;46.042;14.472;2022-10-22T04:52:13;7.10;;;5.23;;
9821;SDS011;4950;46.042;14.472;2022-10-22T04:54:40;6.90;;;5.00;;
9821;SDS011;4950;46.042;14.472;2022-10-22T04:57:07;7.70;;;4.90;;
9821;SDS011;4950;46.042;14.472;2022-10-22T04:59:33;6.07;;;4.95;;
9821;SDS011;4950;46.042;14.472;2022-10-22T05:02:00;8.88;;;5.13;;
9821;SDS011;4950;46.042;14.472;2022-10-22T05:04:27;6.73;;;5.20;;
9821;SDS011;4950;46.042;14.472;2022-10-22T05:06:54;7.78;;;5.40;;
9821;SDS011;4950;46.042;14.472;2022-10-22T05:09:21;6.60;;;4.53;;
9821;SDS011;4950;46.042;14.472;2022-10-22T05:11:48;7.40;;;5.22;;
9821;SDS011;4950;46.042;14.472;2022-10-22T05:14:17;13.20;;;5.30;;
9821;SDS011;4950;46.042;14.472;2022-10-22T05:16:45;5.00;;;4.47;;
9821;SDS011;4950;46.042;14.472;2022-10-22T05:19:14;7.80;;;4.93;;
9821;SDS011;4950;46.042;14.472;2022-10-22T05:21:43;7.40;;;4.80;;
9821;SDS011;4950;46.042;14.472;2022-10-22T05:24:11;6.80;;;4.90;;
9821;SDS011;4950;46.042;14.472;2022-10-22T05:26:38;9.30;;;5.67;;
9821;SDS011;4950;46.042;14.472;2022-10-22T05:29:05;7.97;;;5.18;;
9821;SDS011;4950;46.042;14.472;2022-10-22T05:31:32;9.27;;;5.50;;
9821;SDS011;4950;46.042;14.472;2022-10-22T05:33:58;8.47;;;4.90;;
9821;SDS011;4950;46.042;14.472;2022-10-22T05:36:25;11.10;;;5.47;;
9821;SDS011;4950;46.042;14.472;2022-10-22T05:38:52;10.57;;;4.73;;
9821;SDS011;4950;46.042;14.472;2022-10-22T05:41:21;5.88;;;4.60;;
9821;SDS011;4950;46.042;14.472;2022-10-22T05:43:49;6.27;;;5.03;;
9821;SDS011;4950;46.042;14.472;2022-10-22T05:46:17;8.20;;;5.70;;
9821;SDS011;4950;46.042;14.472;2022-10-22T05:48:47;6.97;;;4.93;;
9821;SDS011;4950;46.042;14.472;2022-10-22T05:51:14;7.20;;;5.43;;
9821;SDS011;4950;46.042;14.472;2022-10-22T05:53:41;8.53;;;5.43;;
9821;SDS011;4950;46.042;14.472;2022-10-22T05:56:09;5.77;;;5.17;;
9821;SDS011;4950;46.042;14.472;2022-10-22T05:58:39;7.97;;;5.10;;
9821;SDS011;4950;46.042;14.472;2022-10-22T06:01:06;8.10;;;5.43;;
9821;SDS011;4950;46.042;14.472;2022-10-22T06:03:36;6.40;;;5.13;;
9821;SDS011;4950;46.042;14.472;2022-10-22T06:06:03;9.47;;;5.30;;
9821;SDS011;4950;46.042;14.472;2022-10-22T06:08:38;6.87;;;4.90;;
9821;SDS011;4950;46.042;14.472;2022-10-22T06:11:05;6.63;;;4.90;;
9821;SDS011;4950;46.042;14.472;2022-10-22T06:13:32;8.13;;;5.83;;
9821;SDS011;4950;46.042;14.472;2022-10-22T06:16:00;6.70;;;5.57;;
9821;SDS011;4950;46.042;14.472;2022-10-22T06:18:26;9.80;;;5.17;;
9821;SDS011;4950;46.042;14.472;2022-10-22T06:20:53;9.23;;;5.50;;
9821;SDS011;4950;46.042;14.472;2022-10-22T06:23:19;6.70;;;5.20;;
9821;SDS011;4950;46.042;14.472;2022-10-22T06:25:54;8.87;;;5.13;;
9821;SDS011;4950;46.042;14.472;2022-10-22T06:28:21;7.50;;;5.37;;
9821;SDS011;4950;46.042;14.472;2022-10-22T06:30:48;7.63;;;5.60;;
9821;SDS011;4950;46.042;14.472;2022-10-22T06:33:16;8.90;;;5.15;;
9821;SDS011;4950;46.042;14.472;2022-10-22T06:35:42;6.03;;;5.13;;
9821;SDS011;4950;46.042;14.472;2022-10-22T06:38:10;7.73;;;5.13;;
9821;SDS011;4950;46.042;14.472;2022-10-22T06:40:36;9.87;;;5.30;;
9821;SDS011;4950;46.042;14.472;2022-10-22T06:43:03;6.32;;;4.97;;
9821;SDS011;4950;46.042;14.472;2022-10-22T06:45:30;10.10;;;5.37;;
9821;SDS011;4950;46.042;14.472;2022-10-22T06:47:57;6.30;;;5.50;;
9821;SDS011;4950;46.042;14.472;2022-10-22T06:50:25;7.67;;;5.20;;
9821;SDS011;4950;46.042;14.472;2022-10-22T06:52:51;8.80;;;5.47;;
9821;SDS011;4950;46.042;14.472;2022-10-22T06:55:18;8.67;;;5.17;;
9821;SDS011;4950;46.042;14.472;2022-10-22T06:57:45;6.20;;;5.17;;
9821;SDS011;4950;46.042;14.472;2022-10-22T07:00:12;7.53;;;4.82;;
9821;SDS011;4950;46.042;14.472;2022-10-22T07:02:39;9.88;;;5.30;;
9821;SDS011;4950;46.042;14.472;2022-10-22T07:05:06;7.53;;;5.13;;
9821;SDS011;4950;46.042;14.472;2022-10-22T07:07:35;6.97;;;5.10;;
9821;SDS011;4950;46.042;14.472;2022-10-22T07:10:01;9.07;;;5.70;;
9821;SDS011;4950;46.042;14.472;2022-10-22T07:12:28;6.55;;;4.88;;
9821;SDS011;4950;46.042;14.472;2022-10-22T07:14:55;7.00;;;4.93;;
9821;SDS011;4950;46.042;14.472;2022-10-22T07:17:22;6.67;;;5.20;;
9821;SDS011;4950;46.042;14.472;2022-10-22T07:19:48;7.93;;;5.87;;
9821;SDS011;4950;46.042;14.472;2022-10-22T07:22:15;8.20;;;5.55;;
9821;SDS011;4950;46.042;14.472;2022-10-22T07:24:43;8.40;;;5.07;;
9821;SDS011;4950;46.042;14.472;2022-10-22T07:27:09;7.68;;;5.10;;
9821;SDS011;4950;46.042;14.472;2022-10-22T07:29:36;8.15;;;5.22;;
9821;SDS011;4950;46.042;14.472;2022-10-22T07:32:03;7.28;;;5.50;;
9821;SDS011;4950;46.042;14.472;2022-10-22T07:34:30;8.10;;;4.93;;
9821;SDS011;4950;46.042;14.472;2022-10-22T07:36:56;6.60;;;5.57;;
9821;SDS011;4950;46.042;14.472;2022-10-22T07:39:23;6.87;;;5.27;;
9821;SDS011;4950;46.042;14.472;2022-10-22T07:41:51;6.43;;;5.17;;
9821;SDS011;4950;46.042;14.472;2022-10-22T07:44:18;6.10;;;4.85;;
9821;SDS011;4950;46.042;14.472;2022-10-22T07:46:44;8.00;;;5.60;;
9821;SDS011;4950;46.042;14.472;2022-10-22T07:49:11;9.30;;;5.78;;
9821;SDS011;4950;46.042;14.472;2022-10-22T07:51:38;7.97;;;5.53;;
9821;SDS011;4950;46.042;14.472;2022-10-22T07:54:04;7.47;;;5.40;;
9821;SDS011;4950;46.042;14.472;2022-10-22T07:56:31;5.97;;;4.72;;
9821;SDS011;4950;46.042;14.472;2022-10-22T07:58:59;9.37;;;5.27;;
9821;SDS011;4950;46.042;14.472;2022-10-22T08:01:25;5.90;;;5.30;;
9821;SDS011;4950;46.042;14.472;2022-10-22T08:03:52;10.63;;;5.00;;
9821;SDS011;4950;46.042;14.472;2022-10-22T08:06:19;8.48;;;5.28;;
9821;SDS011;4950;46.042;14.472;2022-10-22T08:08:45;9.10;;;5.50;;
9821;SDS011;4950;46.042;14.472;2022-10-22T08:11:12;7.25;;;5.07;;
9821;SDS011;4950;46.042;14.472;2022-10-22T08:13:39;6.88;;;5.40;;
9821;SDS011;4950;46.042;14.472;2022-10-22T08:16:07;9.77;;;5.40;;
9821;SDS011;4950;46.042;14.472;2022-10-22T08:18:33;6.97;;;5.33;;
9821;SDS011;4950;46.042;14.472;2022-10-22T08:21:00;8.70;;;5.88;;
9821;SDS011;4950;46.042;14.472;2022-10-22T08:23:26;9.40;;;6.97;;
9821;SDS011;4950;46.042;14.472;2022-10-22T08:25:54;12.47;;;6.30;;
9821;SDS011;4950;46.042;14.472;2022-10-22T08:28:21;7.22;;;5.70;;
9821;SDS011;4950;46.042;14.472;2022-10-22T08:30:47;10.53;;;6.43;;
9821;SDS011;4950;46.042;14.472;2022-10-22T08:33:15;7.30;;;5.50;;
9821;SDS011;4950;46.042;14.472;2022-10-22T08:35:46;9.18;;;5.82;;
9821;SDS011;4950;46.042;14.472;2022-10-22T08:38:13;9.55;;;5.70;;
9821;SDS011;4950;46.042;14.472;2022-10-22T08:40:40;7.50;;;5.72;;
9821;SDS011;4950;46.042;14.472;2022-10-22T08:43:18;9.48;;;6.00;;
9821;SDS011;4950;46.042;14.472;2022-10-22T08:46:06;8.77;;;5.68;;
9821;SDS011;4950;46.042;14.472;2022-10-22T08:48:43;6.78;;;5.80;;
9821;SDS011;4950;46.042;14.472;2022-10-22T08:51:14;9.73;;;5.78;;
9821;SDS011;4950;46.042;14.472;2022-10-22T08:53:45;8.55;;;5.45;;
9821;SDS011;4950;46.042;14.472;2022-10-22T08:56:23;7.43;;;5.75;;
9821;SDS011;4950;46.042;14.472;2022-10-22T08:58:50;10.60;;;5.60;;
9821;SDS011;4950;46.042;14.472;2022-10-22T09:01:22;11.73;;;5.95;;
9821;SDS011;4950;46.042;14.472;2022-10-22T09:04:00;9.50;;;6.40;;
9821;SDS011;4950;46.042;14.472;2022-10-22T09:06:32;7.77;;;6.20;;
9821;SDS011;4950;46.042;14.472;2022-10-22T09:09:04;7.95;;;5.60;;
9821;SDS011;4950;46.042;14.472;2022-10-22T09:11:38;8.85;;;6.28;;
9821;SDS011;4950;46.042;14.472;2022-10-22T09:14:08;14.10;;;6.50;;
9821;SDS011;4950;46.042;14.472;2022-10-22T09:16:50;11.40;;;6.63;;
9821;SDS011;4950;46.042;14.472;2022-10-22T09:19:35;11.27;;;6.23;;
9821;SDS011;4950;46.042;14.472;2022-10-22T09:22:11;7.10;;;6.30;;
9821;SDS011;4950;46.042;14.472;2022-10-22T09:24:48;7.65;;;5.75;;
9821;SDS011;4950;46.042;14.472;2022-10-22T09:27:24;7.73;;;6.17;;
9821;SDS011;4950;46.042;14.472;2022-10-22T09:29:52;10.90;;;6.20;;
9821;SDS011;4950;46.042;14.472;2022-10-22T09:32:18;9.77;;;6.13;;
9821;SDS011;4950;46.042;14.472;2022-10-22T09:34:47;9.27;;;6.10;;
9821;SDS011;4950;46.042;14.472;2022-10-22T09:37:15;11.83;;;6.80;;
9821;SDS011;4950;46.042;14.472;2022-10-22T09:39:44;11.43;;;6.60;;
9821;SDS011;4950;46.042;14.472;2022-10-22T09:42:13;10.20;;;6.68;;
9821;SDS011;4950;46.042;14.472;2022-10-22T09:44:41;7.78;;;5.95;;
9821;SDS011;4950;46.042;14.472;2022-10-22T09:47:25;11.27;;;6.43;;
9821;SDS011;4950;46.042;14.472;2022-10-22T09:50:05;6.10;;;5.10;;
9821;SDS011;4950;46.042;14.472;2022-10-22T09:52:38;8.65;;;5.80;;
9821;SDS011;4950;46.042;14.472;2022-10-22T09:55:10;7.85;;;5.70;;
9821;SDS011;4950;46.042;14.472;2022-10-22T09:57:38;7.38;;;6.32;;
9821;SDS011;4950;46.042;14.472;2022-10-22T10:00:07;10.25;;;6.55;;
9821;SDS011;4950;46.042;14.472;2022-10-22T10:02:37;8.67;;;6.27;;
9821;SDS011;4950;46.042;14.472;2022-10-22T10:05:07;8.73;;;6.93;;
9821;SDS011;4950;46.042;14.472;2022-10-22T10:07:42;10.53;;;7.23;;
9821;SDS011;4950;46.042;14.472;2022-10-22T10:10:26;7.28;;;6.05;;
9821;SDS011;4950;46.042;14.472;2022-10-22T10:13:00;11.23;;;6.80;;
9821;SDS011;4950;46.042;14.472;2022-10-22T10:15:34;10.88;;;6.65;;
9821;SDS011;4950;46.042;14.472;2022-10-22T10:18:07;9.93;;;6.88;;
9821;SDS011;4950;46.042;14.472;2022-10-22T10:20:45;11.95;;;7.65;;
9821;SDS011;4950;46.042;14.472;2022-10-22T10:23:23;11.85;;;9.57;;
9821;SDS011;4950;46.042;14.472;2022-10-22T10:26:00;10.60;;;8.82;;
9821;SDS011;4950;46.042;14.472;2022-10-22T10:28:39;8.93;;;7.53;;
9821;SDS011;4950;46.042;14.472;2022-10-22T10:31:17;7.73;;;6.93;;
9821;SDS011;4950;46.042;14.472;2022-10-22T10:33:50;10.20;;;6.53;;
9821;SDS011;4950;46.042;14.472;2022-10-22T10:36:30;11.70;;;6.97;;
9821;SDS011;4950;46.042;14.472;2022-10-22T10:39:06;11.77;;;6.68;;
9821;SDS011;4950;46.042;14.472;2022-10-22T10:41:41;12.63;;;7.13;;
9821;SDS011;4950;46.042;14.472;2022-10-22T10:47:13;7.22;;;6.53;;
9821;SDS011;4950;46.042;14.472;2022-10-22T10:49:50;14.57;;;9.07;;
9821;SDS011;4950;46.042;14.472;2022-10-22T10:52:34;13.27;;;9.60;;
9821;SDS011;4950;46.042;14.472;2022-10-22T10:55:10;13.07;;;11.20;;
9821;SDS011;4950;46.042;14.472;2022-10-22T10:57:45;14.10;;;11.35;;
9821;SDS011;4950;46.042;14.472;2022-10-22T11:00:20;12.07;;;10.23;;
9821;SDS011;4950;46.042;14.472;2022-10-22T11:02:57;12.80;;;11.00;;
9821;SDS011;4950;46.042;14.472;2022-10-22T11:05:41;13.48;;;10.50;;
9821;SDS011;4950;46.042;14.472;2022-10-22T11:08:13;14.63;;;10.02;;
9821;SDS011;4950;46.042;14.472;2022-10-22T11:10:44;13.02;;;10.48;;
9821;SDS011;4950;46.042;14.472;2022-10-22T11:13:15;12.45;;;10.60;;
9821;SDS011;4950;46.042;14.472;2022-10-22T11:15:49;11.73;;;10.48;;
9821;SDS011;4950;46.042;14.472;2022-10-22T11:18:21;11.75;;;10.52;;
9821;SDS011;4950;46.042;14.472;2022-10-22T11:21:09;13.17;;;9.93;;
9821;SDS011;4950;46.042;14.472;2022-10-22T11:23:45;16.33;;;12.07;;
9821;SDS011;4950;46.042;14.472;2022-10-22T11:26:18;11.25;;;10.10;;
9821;SDS011;4950;46.042;14.472;2022-10-22T11:28:52;11.35;;;10.25;;
9821;SDS011;4950;46.042;14.472;2022-10-22T11:31:20;12.32;;;10.98;;
9821;SDS011;4950;46.042;14.472;2022-10-22T11:33:51;14.02;;;11.02;;
9821;SDS011;4950;46.042;14.472;2022-10-22T11:36:20;13.47;;;9.87;;
9821;SDS011;4950;46.042;14.472;2022-10-22T11:38:50;14.07;;;10.60;;
9821;SDS011;4950;46.042;14.472;2022-10-22T11:41:18;14.40;;;10.65;;
9821;SDS011;4950;46.042;14.472;2022-10-22T11:43:56;11.68;;;10.50;;
9821;SDS011;4950;46.042;14.472;2022-10-22T11:46:37;12.95;;;10.70;;
9821;SDS011;4950;46.042;14.472;2022-10-22T11:49:16;13.48;;;10.90;;
9821;SDS011;4950;46.042;14.472;2022-10-22T11:51:47;13.38;;;10.90;;
9821;SDS011;4950;46.042;14.472;2022-10-22T11:54:36;12.20;;;10.93;;
9821;SDS011;4950;46.042;14.472;2022-10-22T11:57:18;13.13;;;10.80;;
9821;SDS011;4950;46.042;14.472;2022-10-22T11:59:50;11.73;;;9.95;;
9821;SDS011;4950;46.042;14.472;2022-10-22T12:02:41;13.35;;;9.77;;
9821;SDS011;4950;46.042;14.472;2022-10-22T12:08:23;13.50;;;10.98;;
9821;SDS011;4950;46.042;14.472;2022-10-22T12:11:02;10.90;;;9.80;;
9821;SDS011;4950;46.042;14.472;2022-10-22T12:13:31;12.83;;;9.73;;
9821;SDS011;4950;46.042;14.472;2022-10-22T12:16:01;12.97;;;10.37;;
9821;SDS011;4950;46.042;14.472;2022-10-22T12:18:32;10.97;;;9.70;;
9821;SDS011;4950;46.042;14.472;2022-10-22T12:21:04;10.93;;;9.83;;
9821;SDS011;4950;46.042;14.472;2022-10-22T12:23:31;12.10;;;9.45;;
9821;SDS011;4950;46.042;14.472;2022-10-22T12:26:01;11.65;;;9.90;;
9821;SDS011;4950;46.042;14.472;2022-10-22T12:28:29;10.05;;;9.05;;
9821;SDS011;4950;46.042;14.472;2022-10-22T12:31:03;16.30;;;9.52;;
9821;SDS011;4950;46.042;14.472;2022-10-22T12:33:30;10.70;;;9.00;;
9821;SDS011;4950;46.042;14.472;2022-10-22T12:35:57;13.02;;;9.07;;
9821;SDS011;4950;46.042;14.472;2022-10-22T12:38:28;14.03;;;9.70;;
9821;SDS011;4950;46.042;14.472;2022-10-22T12:40:55;11.97;;;9.77;;
9821;SDS011;4950;46.042;14.472;2022-10-22T12:43:25;11.77;;;9.27;;
9821;SDS011;4950;46.042;14.472;2022-10-22T12:45:53;12.55;;;9.57;;
9821;SDS011;4950;46.042;14.472;2022-10-22T12:48:22;13.40;;;9.25;;
9821;SDS011;4950;46.042;14.472;2022-10-22T12:50:50;11.10;;;9.90;;
9821;SDS011;4950;46.042;14.472;2022-10-22T12:53:21;13.10;;;9.38;;
9821;SDS011;4950;46.042;14.472;2022-10-22T12:55:50;13.93;;;9.40;;
9821;SDS011;4950;46.042;14.472;2022-10-22T12:58:20;11.00;;;8.20;;
9821;SDS011;4950;46.042;14.472;2022-10-22T13:00:54;13.17;;;10.30;;
9821;SDS011;4950;46.042;14.472;2022-10-22T13:03:26;11.43;;;9.37;;
9821;SDS011;4950;46.042;14.472;2022-10-22T13:05:55;7.35;;;6.00;;
9821;SDS011;4950;46.042;14.472;2022-10-22T13:08:22;6.63;;;4.97;;
9821;SDS011;4950;46.042;14.472;2022-10-22T13:10:53;9.60;;;3.37;;
9821;SDS011;4950;46.042;14.472;2022-10-22T13:13:30;4.23;;;3.00;;
9821;SDS011;4950;46.042;14.472;2022-10-22T13:18:45;4.27;;;2.67;;
9821;SDS011;4950;46.042;14.472;2022-10-22T13:21:23;3.93;;;2.30;;
9821;SDS011;4950;46.042;14.472;2022-10-22T13:23:55;3.90;;;1.73;;
9821;SDS011;4950;46.042;14.472;2022-10-22T13:26:24;4.03;;;1.63;;
9821;SDS011;4950;46.042;14.472;2022-10-22T13:28:56;2.57;;;1.47;;
9821;SDS011;4950;46.042;14.472;2022-10-22T13:31:27;4.00;;;1.63;;
9821;SDS011;4950;46.042;14.472;2022-10-22T13:33:56;2.93;;;1.20;;
9821;SDS011;4950;46.042;14.472;2022-10-22T13:36:26;2.87;;;1.23;;
9821;SDS011;4950;46.042;14.472;2022-10-22T13:38:53;2.33;;;1.47;;
9821;SDS011;4950;46.042;14.472;2022-10-22T13:41:21;3.70;;;1.50;;
9821;SDS011;4950;46.042;14.472;2022-10-22T13:43:49;2.97;;;1.40;;
9821;SDS011;4950;46.042;14.472;2022-10-22T13:46:16;1.97;;;0.90;;
9821;SDS011;4950;46.042;14.472;2022-10-22T13:48:45;2.10;;;1.00;;
9821;SDS011;4950;46.042;14.472;2022-10-22T13:51:13;2.83;;;1.13;;
9821;SDS011;4950;46.042;14.472;2022-10-22T13:53:42;1.90;;;1.00;;
9821;SDS011;4950;46.042;14.472;2022-10-22T13:56:12;1.10;;;0.80;;
9821;SDS011;4950;46.042;14.472;2022-10-22T13:58:40;2.50;;;0.77;;
9821;SDS011;4950;46.042;14.472;2022-10-22T14:01:10;2.63;;;0.90;;
9821;SDS011;4950;46.042;14.472;2022-10-22T14:03:45;2.83;;;0.80;;
9821;SDS011;4950;46.042;14.472;2022-10-22T14:06:13;3.77;;;0.90;;
9821;SDS011;4950;46.042;14.472;2022-10-22T14:08:41;1.57;;;0.90;;
9821;SDS011;4950;46.042;14.472;2022-10-22T14:11:10;1.43;;;0.80;;
9821;SDS011;4950;46.042;14.472;2022-10-22T14:13:37;2.10;;;0.90;;
9821;SDS011;4950;46.042;14.472;2022-10-22T14:16:04;2.37;;;1.50;;
9821;SDS011;4950;46.042;14.472;2022-10-22T14:18:33;1.90;;;1.37;;
9821;SDS011;4950;46.042;14.472;2022-10-22T14:21:02;2.53;;;1.40;;
9821;SDS011;4950;46.042;14.472;2022-10-22T14:23:32;1.70;;;1.20;;
9821;SDS011;4950;46.042;14.472;2022-10-22T14:25:59;1.20;;;0.90;;
9821;SDS011;4950;46.042;14.472;2022-10-22T14:28:26;2.47;;;1.30;;
9821;SDS011;4950;46.042;14.472;2022-10-22T14:30:53;2.10;;;1.10;;
9821;SDS011;4950;46.042;14.472;2022-10-22T14:33:22;1.70;;;1.47;;
9821;SDS011;4950;46.042;14.472;2022-10-22T14:35:50;6.13;;;3.50;;
9821;SDS011;4950;46.042;14.472;2022-10-22T14:38:18;3.03;;;1.50;;
9821;SDS011;4950;46.042;14.472;2022-10-22T14:40:45;2.00;;;1.40;;
9821;SDS011;4950;46.042;14.472;2022-10-22T14:43:13;3.43;;;1.97;;
9821;SDS011;4950;46.042;14.472;2022-10-22T14:45:44;1.30;;;0.83;;
9821;SDS011;4950;46.042;14.472;2022-10-22T14:48:10;2.97;;;1.10;;
9821;SDS011;4950;46.042;14.472;2022-10-22T14:50:37;2.07;;;1.03;;
9821;SDS011;4950;46.042;14.472;2022-10-22T14:53:03;4.17;;;1.50;;
9821;SDS011;4950;46.042;14.472;2022-10-22T14:55:31;5.60;;;1.70;;
9821;SDS011;4950;46.042;14.472;2022-10-22T14:57:58;2.53;;;1.70;;
9821;SDS011;4950;46.042;14.472;2022-10-22T15:00:25;2.13;;;1.70;;
9821;SDS011;4950;46.042;14.472;2022-10-22T15:02:51;2.73;;;1.60;;
9821;SDS011;4950;46.042;14.472;2022-10-22T15:05:19;3.00;;;1.50;;
9821;SDS011;4950;46.042;14.472;2022-10-22T15:07:47;5.93;;;1.20;;
9821;SDS011;4950;46.042;14.472;2022-10-22T15:10:14;1.97;;;1.10;;
9821;SDS011;4950;46.042;14.472;2022-10-22T15:12:42;4.63;;;1.60;;
9821;SDS011;4950;46.042;14.472;2022-10-22T15:15:09;2.97;;;1.60;;
9821;SDS011;4950;46.042;14.472;2022-10-22T15:17:35;4.00;;;1.47;;
9821;SDS011;4950;46.042;14.472;2022-10-22T15:20:03;3.43;;;1.80;;
9821;SDS011;4950;46.042;14.472;2022-10-22T15:22:31;2.60;;;2.10;;